createdAt,value
2018-04-25T00:01:16.471Z,80.05
2018-04-25T00:03:42.265Z,80.27
2018-04-25T00:06:08.036Z,80.29
2018-04-25T00:08:33.816Z,80.27
2018-04-25T00:10:59.568Z,80.41
2018-04-25T00:13:25.351Z,80.43
2018-04-25T00:15:51.101Z,80.51
2018-04-25T00:18:16.889Z,80.83
2018-04-25T00:20:42.659Z,80.88
2018-04-25T00:23:08.435Z,80.88
2018-04-25T00:25:34.183Z,81.06
2018-04-25T00:27:59.995Z,81.24
2018-04-25T00:30:25.779Z,81.11
2018-04-25T00:32:51.562Z,81.21
2018-04-25T00:35:17.335Z,81.21
2018-04-25T00:37:43.108Z,81.37
2018-04-25T00:40:08.851Z,81.57
2018-04-25T00:42:34.630Z,81.72
2018-04-25T00:45:00.407Z,81.86
2018-04-25T00:47:26.184Z,81.77
2018-04-25T00:49:51.962Z,81.82
2018-04-25T00:52:17.772Z,82.03
2018-04-25T00:54:43.544Z,82.05
2018-04-25T00:57:09.316Z,82.25
2018-04-25T00:59:35.084Z,82.32
2018-04-25T01:10:37.719Z,82.81
2018-04-25T01:13:03.490Z,82.73
2018-04-25T01:15:29.410Z,82.73
2018-04-25T01:17:55.196Z,82.78
2018-04-25T01:20:20.968Z,82.75
2018-04-25T01:22:46.727Z,82.80
2018-04-25T01:25:20.592Z,82.95
2018-04-25T01:27:48.064Z,83.11
2018-04-25T01:30:14.139Z,83.14
2018-04-25T01:32:39.959Z,83.03
2018-04-25T01:35:05.759Z,83.14
2018-04-25T01:37:34.344Z,83.16
2018-04-25T01:40:00.100Z,83.20
2018-04-25T01:42:27.788Z,83.29
2018-04-25T01:44:55.474Z,83.33
2018-04-25T01:47:32.110Z,83.26
2018-04-25T01:50:02.757Z,83.31
2018-04-25T01:52:40.925Z,83.47
2018-04-25T01:55:19.111Z,83.59
2018-04-25T01:57:57.204Z,83.88
2018-04-25T02:00:35.343Z,83.99
2018-04-25T02:03:01.003Z,84.14
2018-04-25T02:05:26.996Z,84.41
2018-04-25T02:07:52.747Z,84.76
2018-04-25T02:10:18.835Z,85.02
2018-04-25T02:12:44.592Z,85.40
2018-04-25T02:15:10.580Z,85.48
2018-04-25T02:17:36.368Z,85.51
2018-04-25T02:20:02.151Z,85.69
2018-04-25T02:22:27.904Z,85.76
2018-04-25T02:24:53.663Z,85.70
2018-04-25T02:27:19.424Z,85.73
2018-04-25T02:29:45.207Z,85.68
2018-04-25T02:32:10.966Z,85.61
2018-04-25T02:34:36.731Z,85.49
2018-04-25T02:37:02.502Z,85.40
2018-04-25T02:39:28.260Z,85.30
2018-04-25T02:41:54.037Z,85.44
2018-04-25T02:44:19.789Z,85.66
2018-04-25T02:46:45.601Z,85.66
2018-04-25T02:49:11.358Z,85.64
2018-04-25T02:51:37.152Z,85.68
2018-04-25T02:54:02.916Z,85.78
2018-04-25T02:56:28.700Z,85.89
2018-04-25T02:58:54.447Z,85.98
2018-04-25T03:01:20.259Z,86.01
2018-04-25T03:03:46.016Z,86.10
2018-04-25T03:06:11.831Z,86.22
2018-04-25T03:08:37.575Z,86.16
2018-04-25T03:11:03.352Z,86.27
2018-04-25T03:13:29.104Z,86.39
2018-04-25T03:15:54.888Z,86.27
2018-04-25T03:18:20.640Z,86.39
2018-04-25T03:20:46.424Z,86.36
2018-04-25T03:23:12.180Z,86.26
2018-04-25T03:25:37.975Z,86.18
2018-04-25T03:28:03.715Z,86.09
2018-04-25T03:30:29.684Z,86.12
2018-04-25T03:32:55.487Z,86.04
2018-04-25T03:35:21.252Z,85.90
2018-04-25T03:37:46.999Z,85.93
2018-04-25T03:40:12.766Z,85.91
2018-04-25T03:42:38.534Z,85.65
2018-04-25T03:45:04.311Z,85.63
2018-04-25T03:47:30.092Z,85.58
2018-04-25T03:49:55.847Z,85.49
2018-04-25T03:52:21.616Z,85.77
2018-04-25T03:54:47.364Z,85.68
2018-04-25T03:57:13.380Z,85.57
2018-04-25T03:59:39.136Z,85.62
2018-04-25T04:02:04.911Z,85.68
2018-04-25T04:04:30.658Z,85.66
2018-04-25T04:06:56.448Z,85.79
2018-04-25T04:09:22.193Z,85.82
2018-04-25T04:11:47.967Z,85.63
2018-04-25T04:14:13.709Z,85.52
2018-04-25T04:16:39.895Z,85.52
2018-04-25T04:19:05.668Z,85.22
2018-04-25T04:21:31.430Z,85.30
2018-04-25T04:23:57.192Z,85.43
2018-04-25T04:26:22.968Z,85.35
2018-04-25T04:28:48.712Z,85.27
2018-04-25T04:31:14.490Z,85.31
2018-04-25T04:33:40.227Z,85.23
2018-04-25T04:36:06.020Z,85.22
2018-04-25T04:38:31.779Z,85.20
2018-04-25T04:40:57.560Z,85.24
2018-04-25T04:43:23.307Z,85.15
2018-04-25T04:45:49.078Z,85.40
2018-04-25T04:48:14.898Z,85.27
2018-04-25T04:50:40.648Z,84.92
2018-04-25T04:53:06.419Z,84.79
2018-04-25T04:55:32.159Z,84.57
2018-04-25T04:57:57.927Z,84.10
2018-04-25T05:00:23.707Z,84.25
2018-04-25T05:02:49.472Z,84.25
2018-04-25T05:05:15.246Z,83.93
2018-04-25T05:07:41.090Z,83.90
2018-04-25T05:10:06.895Z,83.64
2018-04-25T05:12:32.703Z,83.57
2018-04-25T05:14:58.447Z,83.37
2018-04-25T05:17:24.228Z,83.18
2018-04-25T05:19:49.983Z,83.00
2018-04-25T05:22:15.766Z,82.56
2018-04-25T05:24:41.538Z,82.44
2018-04-25T05:27:07.304Z,82.38
2018-04-25T05:29:33.067Z,82.08
2018-04-25T05:31:58.867Z,82.29
2018-04-25T05:34:24.601Z,82.52
2018-04-25T05:36:50.376Z,82.19
2018-04-25T05:39:16.152Z,81.57
2018-04-25T05:41:41.908Z,81.60
2018-04-25T05:44:07.682Z,81.29
2018-04-25T05:46:33.770Z,80.75
2018-04-25T05:48:59.539Z,80.56
2018-04-25T05:51:25.329Z,80.38
2018-04-25T05:53:51.111Z,79.65
2018-04-25T05:56:16.855Z,79.55
2018-04-25T05:58:42.624Z,78.68
2018-04-25T06:01:08.383Z,77.64
2018-04-25T06:03:34.159Z,76.99
2018-04-25T06:05:59.918Z,77.12
2018-04-25T06:08:25.700Z,77.23
2018-04-25T06:10:51.459Z,77.02
2018-04-25T06:13:17.251Z,77.00
2018-04-25T06:15:42.994Z,76.56
2018-04-25T06:18:08.812Z,76.64
2018-04-25T06:20:34.560Z,76.17
2018-04-25T06:23:00.360Z,75.89
2018-04-25T06:25:26.135Z,75.43
2018-04-25T06:27:51.906Z,75.17
2018-04-25T06:30:17.664Z,74.46
2018-04-25T06:32:43.431Z,74.92
2018-04-25T06:35:09.219Z,74.47
2018-04-25T06:37:35.017Z,74.62
2018-04-25T06:40:00.837Z,74.64
2018-04-25T06:42:26.541Z,74.10
2018-04-25T06:44:52.371Z,74.28
2018-04-25T06:47:18.086Z,73.53
2018-04-25T06:49:43.876Z,73.52
2018-04-25T06:52:09.707Z,73.92
2018-04-25T06:54:35.495Z,74.29
2018-04-25T06:57:01.606Z,74.19
2018-04-25T06:59:27.374Z,73.73
2018-04-25T07:01:53.123Z,73.45
2018-04-25T07:04:18.903Z,72.80
2018-04-25T07:06:44.645Z,73.05
2018-04-25T07:09:10.428Z,73.21
2018-04-25T07:11:36.196Z,72.47
2018-04-25T07:14:02.076Z,70.86
2018-04-25T07:16:27.763Z,70.36
2018-04-25T07:18:53.540Z,69.76
2018-04-25T07:21:19.300Z,69.73
2018-04-25T07:23:45.154Z,69.90
2018-04-25T07:26:10.853Z,70.44
2018-04-25T07:28:36.648Z,69.83
2018-04-25T07:31:02.390Z,69.71
2018-04-25T07:33:28.185Z,69.34
2018-04-25T07:35:53.948Z,69.13
2018-04-25T07:38:19.727Z,68.23
2018-04-25T07:40:45.472Z,68.06
2018-04-25T07:43:11.266Z,67.58
2018-04-25T07:45:37.360Z,66.80
2018-04-25T07:48:03.279Z,65.71
2018-04-25T07:50:29.067Z,65.60
2018-04-25T07:52:54.820Z,65.88
2018-04-25T07:55:20.627Z,65.66
2018-04-25T07:57:46.468Z,65.25
2018-04-25T08:00:12.164Z,63.20
2018-04-25T08:02:37.923Z,63.05
2018-04-25T08:05:03.693Z,62.84
2018-04-25T08:07:29.449Z,62.54
2018-04-25T08:09:55.213Z,61.70
2018-04-25T08:12:33.439Z,61.23
2018-04-25T08:15:11.550Z,60.91
2018-04-25T08:17:49.606Z,61.08
2018-04-25T08:20:27.676Z,61.01
2018-04-25T08:22:53.439Z,60.71
2018-04-25T08:25:19.230Z,61.21
2018-04-25T08:27:44.975Z,61.20
2018-04-25T08:30:10.766Z,60.23
2018-04-25T08:32:36.511Z,59.08
2018-04-25T08:35:02.284Z,59.33
2018-04-25T08:37:28.051Z,59.60
2018-04-25T08:39:53.827Z,60.46
2018-04-25T08:42:19.581Z,59.63
2018-04-25T08:44:45.412Z,57.90
2018-04-25T08:47:11.135Z,55.63
2018-04-25T08:49:36.939Z,55.03
2018-04-25T08:52:02.712Z,54.49
2018-04-25T08:54:28.476Z,55.38
2018-04-25T08:56:54.302Z,54.97
2018-04-25T08:59:20.064Z,55.57
2018-04-25T09:01:45.835Z,55.83
2018-04-25T09:04:11.604Z,55.94
2018-04-25T09:06:37.368Z,55.49
2018-04-25T09:09:03.139Z,55.37
2018-04-25T09:11:28.903Z,55.78
2018-04-25T09:13:54.661Z,54.60
2018-04-25T09:16:20.440Z,54.25
2018-04-25T09:18:46.230Z,53.65
2018-04-25T09:21:11.980Z,53.76
2018-04-25T09:23:37.987Z,53.48
2018-04-25T09:26:03.760Z,53.48
2018-04-25T09:28:29.515Z,53.09
2018-04-25T09:30:55.274Z,52.89
2018-04-25T09:33:21.301Z,52.42
2018-04-25T09:35:47.084Z,52.29
2018-04-25T09:38:12.830Z,51.92
2018-04-25T09:40:38.616Z,52.15
2018-04-25T09:43:04.386Z,52.21
2018-04-25T09:45:30.159Z,51.12
2018-04-25T09:47:55.979Z,51.59
2018-04-25T09:50:21.722Z,52.85
2018-04-25T09:52:47.479Z,54.34
2018-04-25T09:55:13.268Z,55.27
2018-04-25T09:57:39.101Z,56.30
2018-04-25T10:00:04.802Z,56.63
2018-04-25T10:02:32.559Z,57.01
2018-04-25T10:04:58.336Z,57.75
2018-04-25T10:07:24.099Z,57.96
2018-04-25T10:09:49.862Z,58.28
2018-04-25T10:12:15.615Z,59.28
2018-04-25T10:14:41.399Z,59.85
2018-04-25T10:17:07.228Z,60.54
2018-04-25T10:19:32.971Z,60.73
2018-04-25T10:21:58.754Z,60.92
2018-04-25T10:24:24.512Z,61.17
2018-04-25T10:26:50.320Z,61.00
2018-04-25T10:29:16.132Z,59.93
2018-04-25T10:31:41.884Z,59.96
2018-04-25T10:34:07.640Z,59.79
2018-04-25T10:36:33.455Z,59.28
2018-04-25T10:38:59.276Z,58.69
2018-04-25T10:41:25.000Z,57.86
2018-04-25T10:43:50.782Z,58.77
2018-04-25T10:46:16.551Z,58.26
2018-04-25T10:48:42.328Z,58.07
2018-04-25T10:51:08.082Z,58.12
2018-04-25T10:53:33.857Z,58.08
2018-04-25T10:55:59.805Z,57.88
2018-04-25T10:58:25.575Z,56.90
2018-04-25T11:00:51.330Z,57.23
2018-04-25T11:03:17.135Z,58.80
2018-04-25T11:05:42.875Z,59.27
2018-04-25T11:08:08.631Z,59.87
2018-04-25T11:10:34.437Z,60.42
2018-04-25T11:13:00.189Z,60.54
2018-04-25T11:15:25.952Z,60.51
2018-04-25T11:17:51.710Z,61.31
2018-04-25T11:20:17.496Z,61.31
2018-04-25T11:22:43.305Z,61.53
2018-04-25T11:25:09.068Z,61.66
2018-04-25T11:27:34.859Z,61.97
2018-04-25T11:30:00.636Z,62.62
2018-04-25T11:32:26.397Z,63.44
2018-04-25T11:34:52.159Z,63.73
2018-04-25T11:37:17.938Z,63.36
2018-04-25T11:39:43.795Z,64.20
2018-04-25T11:42:09.588Z,64.61
2018-04-25T11:44:35.371Z,65.10
2018-04-25T11:47:01.152Z,65.19
2018-04-25T11:49:26.900Z,65.20
2018-04-25T11:51:52.656Z,65.79
2018-04-25T11:54:18.408Z,66.05
2018-04-25T11:56:44.255Z,66.29
2018-04-25T11:59:10.036Z,66.43
2018-04-25T12:01:35.783Z,65.36
2018-04-25T12:04:01.583Z,65.35
2018-04-25T12:06:27.447Z,63.94
2018-04-25T12:08:53.204Z,64.95
2018-04-25T12:11:18.971Z,65.01
2018-04-25T12:13:44.747Z,64.95
2018-04-25T12:16:10.532Z,64.07
2018-04-25T12:18:36.291Z,63.68
2018-04-25T12:21:02.042Z,62.90
2018-04-25T12:23:27.808Z,62.40
2018-04-25T12:31:45.557Z,62.35
2018-04-25T12:34:11.320Z,62.25
2018-04-25T12:36:37.089Z,61.83
2018-04-25T12:39:02.874Z,62.14
2018-04-25T12:41:28.640Z,62.33
2018-04-25T12:43:54.409Z,62.09
2018-04-25T12:46:20.179Z,61.69
2018-04-25T12:48:45.927Z,60.95
2018-04-25T12:51:11.708Z,60.65
2018-04-25T12:53:37.703Z,60.15
2018-04-25T12:56:03.463Z,58.99
2018-04-25T12:58:29.263Z,58.69
2018-04-25T13:00:55.082Z,58.48
2018-04-25T13:03:20.843Z,58.57
2018-04-25T13:05:46.589Z,58.75
2018-04-25T13:08:12.373Z,59.29
2018-04-25T13:10:38.175Z,59.59
2018-04-25T13:13:03.927Z,60.15
2018-04-25T13:15:29.700Z,60.06
2018-04-25T13:17:55.488Z,59.61
2018-04-25T13:20:21.293Z,59.02
2018-04-25T13:22:47.035Z,59.03
2018-04-25T13:25:12.803Z,58.65
2018-04-25T13:27:38.564Z,59.00
2018-04-25T13:30:04.356Z,58.76
2018-04-25T13:32:30.124Z,58.10
2018-04-25T13:34:55.916Z,57.01
2018-04-25T13:37:21.685Z,57.73
2018-04-25T13:39:47.450Z,58.34
2018-04-25T13:42:13.195Z,58.63
2018-04-25T13:44:38.969Z,58.18
2018-04-25T13:47:04.773Z,57.24
2018-04-25T13:49:30.599Z,57.44
2018-04-25T13:51:56.340Z,57.35
2018-04-25T13:54:22.104Z,57.59
2018-04-25T13:56:47.928Z,57.50
2018-04-25T13:59:13.696Z,57.01
2018-04-25T14:01:39.481Z,55.60
2018-04-25T14:04:05.243Z,55.51
2018-04-25T14:06:30.996Z,55.76
2018-04-25T14:08:56.752Z,55.60
2018-04-25T14:11:22.531Z,56.19
2018-04-25T14:13:48.288Z,56.55
2018-04-25T14:16:14.051Z,57.39
2018-04-25T14:18:39.828Z,58.15
2018-04-25T14:21:05.595Z,57.85
2018-04-25T14:23:31.367Z,56.58
2018-04-25T14:25:57.117Z,56.07
2018-04-25T14:28:22.958Z,55.83
2018-04-25T14:30:48.756Z,56.26
2018-04-25T14:33:14.505Z,56.03
2018-04-25T14:35:40.267Z,57.01
2018-04-25T14:38:06.016Z,57.51
2018-04-25T14:40:31.816Z,57.99
2018-04-25T14:42:57.568Z,58.79
2018-04-25T14:45:23.339Z,58.83
2018-04-25T14:47:49.091Z,59.00
2018-04-25T14:50:14.888Z,58.79
2018-04-25T14:52:40.641Z,58.92
2018-04-25T14:55:06.432Z,58.92
2018-04-25T14:57:32.175Z,58.15
2018-04-25T14:59:57.963Z,58.22
2018-04-25T15:02:23.707Z,57.65
2018-04-25T15:04:50.078Z,57.08
2018-04-25T15:07:15.851Z,57.98
2018-04-25T15:09:41.603Z,57.79
2018-04-25T15:12:07.362Z,58.46
2018-04-25T15:14:33.127Z,57.33
2018-04-25T15:16:58.909Z,57.77
2018-04-25T15:19:24.685Z,57.52
2018-04-25T15:21:50.436Z,56.97
2018-04-25T15:24:16.208Z,56.78
2018-04-25T15:26:41.987Z,57.97
2018-04-25T15:29:07.730Z,57.39
2018-04-25T15:31:33.711Z,57.77
2018-04-25T15:33:59.464Z,57.55
2018-04-25T15:36:25.229Z,56.90
2018-04-25T15:38:50.966Z,56.35
2018-04-25T15:41:16.758Z,56.74
2018-04-25T15:43:42.511Z,56.72
2018-04-25T15:46:08.291Z,56.55
2018-04-25T15:48:34.055Z,56.25
2018-04-25T15:50:59.830Z,56.25
2018-04-25T15:53:25.666Z,55.77
2018-04-25T15:55:51.387Z,55.94
2018-04-25T15:58:17.131Z,55.72
2018-04-25T16:00:42.918Z,55.75
2018-04-25T16:03:08.664Z,56.13
2018-04-25T16:05:34.443Z,56.31
2018-04-25T16:08:00.183Z,55.40
2018-04-25T16:10:25.968Z,55.85
2018-04-25T16:12:51.719Z,56.44
2018-04-25T16:15:17.503Z,57.18
2018-04-25T16:17:43.242Z,57.26
2018-04-25T16:20:08.990Z,57.85
2018-04-25T16:22:34.765Z,57.63
2018-04-25T16:25:00.903Z,57.01
2018-04-25T16:27:26.672Z,56.75
2018-04-25T16:29:52.440Z,57.14
2018-04-25T16:32:18.195Z,57.71
2018-04-25T16:34:43.966Z,57.56
2018-04-25T16:37:09.723Z,58.07
2018-04-25T16:39:35.479Z,57.99
2018-04-25T16:42:01.255Z,58.50
2018-04-25T16:44:27.020Z,58.91
2018-04-25T16:46:53.088Z,58.78
2018-04-25T16:49:18.864Z,58.61
2018-04-25T16:51:44.623Z,58.08
2018-04-25T16:54:10.384Z,58.16
2018-04-25T16:56:36.456Z,58.54
2018-04-25T16:59:02.228Z,58.65
2018-04-25T17:01:28.027Z,57.60
2018-04-25T17:03:53.776Z,57.39
2018-04-25T17:06:20.107Z,56.97
2018-04-25T17:08:45.860Z,57.17
2018-04-25T17:11:11.614Z,57.12
2018-04-25T17:13:37.371Z,57.26
2018-04-25T17:16:03.179Z,57.60
2018-04-25T17:18:28.924Z,57.99
2018-04-25T17:20:54.680Z,58.17
2018-04-25T17:23:20.429Z,58.27
2018-04-25T17:25:46.215Z,58.46
2018-04-25T17:28:11.943Z,58.63
2018-04-25T17:30:37.686Z,58.90
2018-04-25T17:33:03.461Z,59.16
2018-04-25T17:35:29.387Z,58.88
2018-04-25T17:37:55.188Z,58.83
2018-04-25T17:40:20.951Z,58.83
2018-04-25T17:42:46.721Z,58.89
2018-04-25T17:45:12.466Z,59.61
2018-04-25T17:47:38.455Z,60.00
2018-04-25T17:50:04.220Z,59.18
2018-04-25T17:52:30.015Z,59.48
2018-04-25T17:54:55.812Z,59.98
2018-04-25T17:57:21.580Z,60.46
2018-04-25T17:59:47.349Z,60.38
2018-04-25T18:02:13.357Z,60.14
2018-04-25T18:04:39.123Z,60.59
2018-04-25T18:07:04.915Z,61.00
2018-04-25T18:09:30.658Z,61.07
2018-04-25T18:11:56.574Z,61.23
2018-04-25T18:14:22.380Z,61.82
2018-04-25T18:16:48.194Z,61.86
2018-04-25T18:19:13.906Z,61.60
2018-04-25T18:21:39.680Z,61.95
2018-04-25T18:24:05.435Z,61.88
2018-04-25T18:26:31.444Z,62.00
2018-04-25T18:28:57.236Z,62.43
2018-04-25T18:31:23.008Z,63.23
2018-04-25T18:33:48.767Z,64.21
2018-04-25T18:36:14.527Z,67.00
2018-04-25T18:38:40.285Z,70.11
2018-04-25T18:41:06.075Z,71.41
2018-04-25T18:43:31.888Z,71.76
2018-04-25T18:45:57.632Z,72.30
2018-04-25T18:48:23.414Z,73.42
2018-04-25T18:50:49.172Z,74.37
2018-04-25T18:53:14.987Z,74.98
2018-04-25T18:55:40.727Z,74.29
2018-04-25T18:58:06.688Z,74.59
2018-04-25T19:00:32.442Z,74.56
2018-04-25T19:02:58.215Z,74.89
2018-04-25T19:05:23.967Z,75.56
2018-04-25T19:07:49.727Z,76.36
2018-04-25T19:10:15.503Z,77.19
2018-04-25T19:12:41.320Z,77.52
2018-04-25T19:15:07.080Z,77.85
2018-04-25T19:17:32.902Z,78.08
2018-04-25T19:19:58.672Z,77.91
2018-04-25T19:22:31.328Z,77.67
2018-04-25T19:24:57.082Z,77.31
2018-04-25T19:27:22.871Z,77.41
2018-04-25T19:29:48.629Z,77.13
2018-04-25T19:32:14.416Z,76.82
2018-04-25T19:34:40.159Z,75.94
2018-04-25T19:37:05.950Z,76.15
2018-04-25T19:39:31.698Z,76.20
2018-04-25T19:41:57.474Z,75.59
2018-04-25T19:44:23.243Z,76.06
2018-04-25T19:46:49.004Z,75.69
2018-04-25T19:49:14.815Z,76.20
2018-04-25T19:51:40.786Z,76.92
2018-04-25T19:54:06.567Z,76.88
2018-04-25T19:56:32.303Z,76.21
2018-04-25T19:58:58.071Z,76.50
2018-04-25T20:01:23.843Z,77.06
2018-04-25T20:03:49.631Z,77.23
2018-04-25T20:06:15.399Z,77.24
2018-04-25T20:08:41.157Z,77.72
2018-04-25T20:11:06.930Z,77.66
2018-04-25T20:13:32.720Z,77.33
2018-04-25T20:15:58.480Z,77.04
2018-04-25T20:18:24.235Z,77.04
2018-04-25T20:20:49.984Z,77.83
2018-04-25T20:23:15.751Z,77.81
2018-04-25T20:25:41.526Z,78.06
2018-04-25T20:28:07.340Z,78.19
2018-04-25T20:30:33.096Z,78.70
2018-04-25T20:32:58.903Z,78.31
2018-04-25T20:35:24.697Z,77.97
2018-04-25T20:37:50.505Z,77.49
2018-04-25T20:40:16.263Z,77.24
2018-04-25T20:42:42.037Z,77.07
2018-04-25T20:45:07.790Z,76.50
2018-04-25T20:47:33.605Z,76.25
2018-04-25T20:49:59.359Z,75.60
2018-04-25T20:52:25.112Z,75.92
2018-04-25T20:54:50.898Z,76.42
2018-04-25T20:57:16.715Z,77.18
2018-04-25T20:59:42.515Z,76.54
2018-04-25T21:02:08.308Z,75.81
2018-04-25T21:04:34.078Z,75.91
2018-04-25T21:06:59.831Z,75.61
2018-04-25T21:09:25.626Z,76.47
2018-04-25T21:11:51.367Z,76.41
2018-04-25T21:14:17.141Z,76.71
2018-04-25T21:16:42.895Z,77.24
2018-04-25T21:19:08.676Z,76.33
2018-04-25T21:21:34.426Z,76.95
2018-04-25T21:24:00.264Z,77.42
2018-04-25T21:26:25.951Z,77.40
2018-04-25T21:28:51.727Z,77.30
2018-04-25T21:31:17.539Z,77.71
2018-04-25T21:33:43.253Z,77.84
2018-04-25T21:36:08.995Z,78.19
2018-04-25T21:38:34.784Z,78.44
2018-04-25T21:41:00.538Z,78.38
2018-04-25T21:43:26.300Z,78.63
2018-04-25T21:45:52.048Z,78.66
2018-04-25T21:48:17.996Z,78.85
2018-04-25T21:50:43.759Z,78.90
2018-04-25T21:53:09.537Z,78.91
2018-04-25T21:55:35.295Z,78.63
2018-04-25T21:58:01.176Z,78.90
2018-04-25T22:00:26.887Z,79.13
2018-04-25T22:02:52.653Z,79.14
2018-04-25T22:05:18.398Z,79.16
2018-04-25T22:07:44.148Z,79.69
2018-04-25T22:10:09.923Z,79.60
2018-04-25T22:12:35.691Z,79.88
2018-04-25T22:15:01.459Z,80.42
2018-04-25T22:17:27.245Z,80.50
2018-04-25T22:19:53.023Z,80.37
2018-04-25T22:22:18.771Z,80.11
2018-04-25T22:24:44.535Z,80.31
2018-04-25T22:27:10.301Z,80.29
2018-04-25T22:29:36.067Z,80.13
2018-04-25T22:32:01.817Z,80.40
2018-04-25T22:34:27.589Z,80.24
2018-04-25T22:36:53.347Z,80.22
2018-04-25T22:39:19.123Z,80.32
2018-04-25T22:41:44.871Z,80.64
2018-04-25T22:44:10.646Z,80.85
2018-04-25T22:46:36.419Z,81.07
2018-04-25T22:49:02.211Z,80.98
2018-04-25T22:51:27.960Z,81.09
2018-04-25T22:59:38.412Z,81.19
2018-04-25T23:02:04.195Z,81.27
2018-04-25T23:04:29.969Z,81.35
2018-04-25T23:06:55.715Z,81.35
2018-04-25T23:09:21.483Z,81.23
2018-04-25T23:11:47.227Z,81.49
2018-04-25T23:14:13.024Z,81.61
2018-04-25T23:16:38.763Z,81.59
2018-04-25T23:19:04.563Z,81.68
2018-04-25T23:21:30.299Z,81.86
2018-04-25T23:23:56.077Z,82.05
2018-04-25T23:26:21.832Z,82.14
2018-04-25T23:28:47.591Z,82.12
2018-04-25T23:31:13.347Z,81.93
2018-04-25T23:33:39.708Z,81.93
2018-04-25T23:36:05.495Z,81.92
2018-04-25T23:38:31.259Z,82.10
2018-04-25T23:40:57.021Z,82.21
2018-04-25T23:43:22.770Z,82.27
2018-04-25T23:45:49.416Z,82.22
2018-04-25T23:48:15.171Z,81.95
2018-04-25T23:50:40.952Z,81.97
2018-04-25T23:53:06.789Z,82.08
2018-04-25T23:55:32.579Z,82.11
2018-04-25T23:57:58.356Z,82.36
